createdAt,value
2018-03-01T00:01:16.027Z,55.37
2018-03-01T00:03:44.595Z,55.67
2018-03-01T00:06:12.661Z,51.30
2018-03-01T00:08:40.753Z,56.77
2018-03-01T00:11:09.315Z,60.30
2018-03-01T00:13:38.243Z,51.77
2018-03-01T00:16:06.385Z,65.63
2018-03-01T00:18:34.359Z,53.57
2018-03-01T00:21:03.171Z,58.17
2018-03-01T00:23:31.904Z,59.47
2018-03-01T00:26:00.177Z,53.83
2018-03-01T00:28:28.219Z,58.97
2018-03-01T00:30:56.241Z,60.77
2018-03-01T00:33:24.313Z,53.03
2018-03-01T00:35:52.212Z,53.40
2018-03-01T00:38:20.064Z,61.33
2018-03-01T00:40:48.681Z,62.43
2018-03-01T00:43:16.672Z,58.33
2018-03-01T00:45:44.747Z,56.33
2018-03-01T00:48:12.734Z,64.40
2018-03-01T00:50:40.508Z,59.57
2018-03-01T00:53:10.012Z,57.17
2018-03-01T00:55:38.772Z,60.70
2018-03-01T00:58:06.784Z,54.97
2018-03-01T01:00:35.734Z,54.53
2018-03-01T01:03:03.611Z,64.30
2018-03-01T01:05:32.162Z,57.03
2018-03-01T01:07:59.981Z,59.03
2018-03-01T01:10:28.120Z,63.60
2018-03-01T01:12:55.900Z,52.57
2018-03-01T01:15:23.773Z,53.43
2018-03-01T01:17:51.648Z,57.40
2018-03-01T01:20:19.786Z,57.10
2018-03-01T01:22:47.757Z,59.07
2018-03-01T01:25:15.625Z,57.77
2018-03-01T01:27:43.793Z,60.30
2018-03-01T01:30:11.661Z,53.40
2018-03-01T01:32:39.636Z,57.97
2018-03-01T01:35:07.931Z,53.93
2018-03-01T01:37:35.821Z,54.77
2018-03-01T01:40:05.076Z,57.07
2018-03-01T01:42:33.075Z,59.97
2018-03-01T01:45:01.852Z,53.93
2018-03-01T01:47:29.819Z,57.13
2018-03-01T01:49:57.869Z,57.33
2018-03-01T01:52:25.758Z,52.40
2018-03-01T01:54:53.621Z,58.00
2018-03-01T01:57:22.285Z,56.00
2018-03-01T01:59:50.057Z,55.33
2018-03-01T02:02:18.146Z,58.40
2018-03-01T02:04:46.017Z,63.60
2018-03-01T02:07:14.064Z,61.17
2018-03-01T02:09:41.850Z,56.53
2018-03-01T02:12:09.711Z,54.77
2018-03-01T02:14:37.571Z,53.00
2018-03-01T02:17:05.657Z,60.23
2018-03-01T02:19:33.525Z,56.80
2018-03-01T02:22:01.277Z,63.20
2018-03-01T02:24:29.354Z,60.87
2018-03-01T02:26:57.137Z,56.40
2018-03-01T02:29:25.817Z,60.00
2018-03-01T02:31:54.381Z,61.33
2018-03-01T02:34:22.430Z,56.13
2018-03-01T02:36:50.534Z,71.33
2018-03-01T02:39:18.494Z,62.07
2018-03-01T02:41:46.360Z,64.30
2018-03-01T02:44:14.164Z,60.40
2018-03-01T02:46:41.969Z,72.33
2018-03-01T02:49:09.934Z,65.13
2018-03-01T02:51:37.727Z,52.63
2018-03-01T02:54:05.700Z,61.30
2018-03-01T02:56:33.560Z,57.73
2018-03-01T02:59:01.422Z,66.43
2018-03-01T03:01:30.084Z,56.27
2018-03-01T03:03:58.053Z,60.97
2018-03-01T03:06:25.905Z,62.60
2018-03-01T03:08:53.992Z,67.23
2018-03-01T03:11:21.854Z,52.17
2018-03-01T03:13:49.930Z,64.17
2018-03-01T03:16:18.000Z,66.87
2018-03-01T03:18:45.762Z,62.10
2018-03-01T03:21:14.068Z,65.93
2018-03-01T03:23:42.132Z,67.87
2018-03-01T03:26:09.910Z,59.00
2018-03-01T03:28:39.377Z,62.33
2018-03-01T03:31:07.172Z,69.90
2018-03-01T03:33:34.926Z,52.70
2018-03-01T03:36:02.684Z,54.53
2018-03-01T03:38:30.462Z,68.13
2018-03-01T03:40:59.766Z,58.43
2018-03-01T03:43:27.693Z,62.47
2018-03-01T03:45:55.492Z,61.10
2018-03-01T03:48:23.362Z,68.70
2018-03-01T03:50:51.473Z,58.40
2018-03-01T03:53:19.808Z,62.63
2018-03-01T03:55:48.367Z,64.07
2018-03-01T03:58:16.262Z,60.37
2018-03-01T04:00:44.225Z,64.87
2018-03-01T04:03:12.272Z,64.03
2018-03-01T04:05:40.340Z,68.23
2018-03-01T04:08:08.228Z,66.67
2018-03-01T04:10:36.480Z,66.43
2018-03-01T04:13:04.370Z,59.63
2018-03-01T04:15:32.955Z,63.37
2018-03-01T04:18:00.751Z,62.47
2018-03-01T04:20:29.723Z,59.50
2018-03-01T04:22:58.063Z,65.50
2018-03-01T04:25:25.857Z,54.97
2018-03-01T04:27:53.833Z,62.00
2018-03-01T04:30:21.695Z,56.43
2018-03-01T04:32:49.631Z,56.00
2018-03-01T04:35:17.558Z,59.13
2018-03-01T04:37:46.081Z,68.07
2018-03-01T04:40:14.046Z,64.03
2018-03-01T04:42:41.908Z,63.20
2018-03-01T04:45:10.422Z,61.00
2018-03-01T04:47:38.205Z,64.43
2018-03-01T04:50:06.880Z,59.20
2018-03-01T04:52:36.132Z,58.07
2018-03-01T04:55:04.120Z,66.70
2018-03-01T04:57:31.918Z,57.40
2018-03-01T05:00:00.600Z,60.43
2018-03-01T05:02:28.743Z,60.90
2018-03-01T05:04:56.629Z,62.93
2018-03-01T05:07:25.311Z,65.77
2018-03-01T05:09:53.258Z,57.20
2018-03-01T05:12:21.230Z,59.90
2018-03-01T05:14:49.166Z,61.47
2018-03-01T05:17:16.986Z,61.93
2018-03-01T05:19:44.847Z,61.77
2018-03-01T05:22:12.714Z,63.57
2018-03-01T05:24:40.698Z,63.43
2018-03-01T05:27:09.349Z,61.70
2018-03-01T05:29:37.137Z,62.80
2018-03-01T05:32:04.904Z,71.73
2018-03-01T05:34:33.482Z,76.40
2018-03-01T05:37:01.327Z,55.17
2018-03-01T05:39:29.858Z,67.47
2018-03-01T05:41:58.771Z,65.23
2018-03-01T05:44:28.087Z,68.10
2018-03-01T05:46:56.069Z,67.97
2018-03-01T05:49:24.060Z,69.07
2018-03-01T05:51:52.022Z,68.67
2018-03-01T05:54:20.322Z,73.03
2018-03-01T05:56:49.095Z,73.73
2018-03-01T05:59:16.954Z,65.13
2018-03-01T06:01:45.014Z,59.10
2018-03-01T06:04:13.177Z,65.47
2018-03-01T06:06:41.253Z,67.20
2018-03-01T06:09:09.316Z,72.20
2018-03-01T06:11:37.108Z,71.23
2018-03-01T06:14:05.083Z,71.53
2018-03-01T06:16:34.078Z,74.33
2018-03-01T06:19:02.129Z,78.10
2018-03-01T06:21:30.224Z,75.33
2018-03-01T06:23:58.724Z,85.47
2018-03-01T06:26:27.566Z,82.07
2018-03-01T06:28:55.336Z,78.03
2018-03-01T06:31:23.219Z,101.13
2018-03-01T06:33:51.195Z,96.07
2018-03-01T06:36:19.316Z,93.73
2018-03-01T06:38:47.336Z,74.80
2018-03-01T06:41:15.187Z,83.23
2018-03-01T06:43:43.242Z,83.37
2018-03-01T06:46:11.411Z,75.77
2018-03-01T06:48:39.958Z,81.43
2018-03-01T06:51:08.191Z,83.10
2018-03-01T06:53:37.056Z,91.30
2018-03-01T06:56:04.984Z,71.43
2018-03-01T07:01:29.519Z,85.83
2018-03-01T07:03:57.629Z,85.30
2018-03-01T07:06:30.318Z,100.20
2018-03-01T07:09:02.231Z,97.03
2018-03-01T07:11:34.449Z,87.13
2018-03-01T07:14:17.439Z,83.23
2018-03-01T07:16:46.486Z,92.07
2018-03-01T07:19:19.988Z,87.53
2018-03-01T07:22:00.674Z,96.00
2018-03-01T07:24:30.856Z,82.23
2018-03-01T07:27:02.390Z,79.43
2018-03-01T07:29:38.277Z,81.77
2018-03-01T07:32:09.819Z,85.83
2018-03-01T07:34:42.785Z,81.80
2018-03-01T07:37:14.600Z,94.10
2018-03-01T07:39:51.240Z,75.47
2018-03-01T07:42:23.445Z,80.17
2018-03-01T07:44:55.554Z,74.00
2018-03-01T07:47:30.046Z,73.43
2018-03-01T07:50:03.930Z,78.10
2018-03-01T07:52:35.408Z,78.23
2018-03-01T07:55:05.061Z,85.77
2018-03-01T07:57:35.185Z,83.03
2018-03-01T08:00:05.294Z,72.70
2018-03-01T08:02:36.511Z,80.07
2018-03-01T08:05:04.610Z,70.93
2018-03-01T08:07:38.346Z,88.13
2018-03-01T08:10:07.230Z,78.93
2018-03-01T08:12:36.006Z,76.03
2018-03-01T08:15:03.879Z,74.73
2018-03-01T08:17:32.439Z,77.37
2018-03-01T08:20:01.213Z,74.17
2018-03-01T08:22:29.305Z,68.40
2018-03-01T08:24:57.246Z,80.00
2018-03-01T08:27:25.023Z,81.93
2018-03-01T08:29:52.979Z,77.10
2018-03-01T08:32:20.765Z,70.70
2018-03-01T08:34:48.743Z,73.40
2018-03-01T08:37:16.991Z,84.77
2018-03-01T08:39:44.877Z,85.33
2018-03-01T08:42:12.723Z,83.53
2018-03-01T08:44:40.688Z,71.83
2018-03-01T08:47:08.587Z,78.03
2018-03-01T08:49:36.553Z,79.53
2018-03-01T08:52:04.448Z,79.00
2018-03-01T08:54:32.988Z,75.60
2018-03-01T08:57:01.580Z,81.93
2018-03-01T08:59:29.468Z,74.77
2018-03-01T09:01:57.494Z,84.90
2018-03-01T09:04:26.333Z,65.60
2018-03-01T09:06:55.001Z,79.53
2018-03-01T09:09:22.920Z,80.23
2018-03-01T09:11:52.048Z,80.13
2018-03-01T09:14:20.757Z,71.80
2018-03-01T09:16:49.423Z,73.57
2018-03-01T09:19:17.368Z,71.20
2018-03-01T09:21:45.272Z,69.30
2018-03-01T09:24:13.856Z,90.30
2018-03-01T09:26:41.792Z,81.87
2018-03-01T09:29:09.692Z,78.03
2018-03-01T09:31:38.375Z,73.30
2018-03-01T09:34:07.127Z,68.07
2018-03-01T09:36:35.409Z,71.67
2018-03-01T09:39:03.373Z,74.37
2018-03-01T09:41:31.270Z,67.93
2018-03-01T09:44:00.132Z,64.93
2018-03-01T09:46:28.066Z,73.00
2018-03-01T09:48:56.066Z,74.87
2018-03-01T09:51:23.853Z,80.43
2018-03-01T09:53:51.798Z,84.53
2018-03-01T09:56:19.776Z,81.00
2018-03-01T09:58:47.765Z,88.20
2018-03-01T10:01:15.602Z,95.63
2018-03-01T10:03:43.500Z,83.10
2018-03-01T10:06:12.176Z,74.63
2018-03-01T10:08:40.174Z,77.00
2018-03-01T10:11:08.911Z,77.93
2018-03-01T10:13:36.719Z,92.87
2018-03-01T10:16:06.784Z,84.00
2018-03-01T10:18:36.265Z,76.30
2018-03-01T10:21:04.191Z,85.47
2018-03-01T10:23:32.056Z,78.63
2018-03-01T10:26:00.101Z,80.27
2018-03-01T10:28:28.705Z,83.87
2018-03-01T10:30:56.521Z,79.77
2018-03-01T10:33:24.467Z,94.03
2018-03-01T10:35:53.111Z,74.70
2018-03-01T10:38:21.196Z,73.87
2018-03-01T10:40:49.173Z,88.23
2018-03-01T10:43:17.133Z,76.23
2018-03-01T10:45:46.643Z,75.07
2018-03-01T10:48:14.511Z,79.63
2018-03-01T10:50:42.476Z,81.33
2018-03-01T10:53:10.435Z,81.37
2018-03-01T10:55:38.501Z,72.50
2018-03-01T10:58:06.384Z,73.47
2018-03-01T11:00:40.709Z,84.37
2018-03-01T11:03:08.467Z,75.30
2018-03-01T11:05:36.429Z,81.43
2018-03-01T11:08:04.479Z,78.30
2018-03-01T11:10:32.529Z,78.90
2018-03-01T11:13:00.724Z,77.30
2018-03-01T11:15:29.632Z,79.77
2018-03-01T11:17:57.825Z,84.97
2018-03-01T11:20:25.977Z,80.83
2018-03-01T11:22:53.939Z,89.83
2018-03-01T11:25:21.900Z,73.77
2018-03-01T11:27:50.484Z,77.13
2018-03-01T11:30:18.454Z,70.20
2018-03-01T11:32:46.632Z,71.63
2018-03-01T11:35:14.591Z,81.83
2018-03-01T11:37:42.478Z,72.33
2018-03-01T11:40:10.666Z,92.17
2018-03-01T11:42:38.498Z,77.87
2018-03-01T11:45:06.569Z,70.17
2018-03-01T11:47:34.542Z,73.33
2018-03-01T11:50:02.428Z,77.17
2018-03-01T11:52:30.907Z,77.70
2018-03-01T11:54:59.228Z,74.43
2018-03-01T11:57:27.341Z,73.43
2018-03-01T11:59:55.225Z,77.33
2018-03-01T12:02:23.201Z,81.90
2018-03-01T12:04:51.960Z,78.83
2018-03-01T12:07:19.877Z,84.33
2018-03-01T12:09:48.920Z,67.70
2018-03-01T12:12:16.985Z,79.67
2018-03-01T12:14:45.064Z,70.60
2018-03-01T12:17:12.955Z,74.90
2018-03-01T12:19:41.733Z,80.50
2018-03-01T12:22:09.922Z,83.40
2018-03-01T12:24:37.861Z,82.20
2018-03-01T12:27:05.749Z,77.33
2018-03-01T12:29:33.700Z,74.47
2018-03-01T12:32:01.667Z,71.97
2018-03-01T12:34:29.926Z,79.13
2018-03-01T12:36:58.038Z,83.97
2018-03-01T12:39:26.014Z,90.13
2018-03-01T12:41:54.254Z,75.23
2018-03-01T12:44:22.319Z,73.90
2018-03-01T12:46:50.294Z,81.40
2018-03-01T12:49:18.365Z,87.97
2018-03-01T12:51:46.456Z,81.50
2018-03-01T12:54:14.541Z,80.40
2018-03-01T12:56:42.506Z,81.33
2018-03-01T12:59:10.442Z,80.20
2018-03-01T13:01:38.523Z,90.67
2018-03-01T13:04:06.510Z,87.93
2018-03-01T13:06:34.487Z,84.87
2018-03-01T13:09:03.265Z,83.13
2018-03-01T13:11:32.028Z,86.00
2018-03-01T13:14:00.013Z,94.50
2018-03-01T13:16:28.375Z,81.90
2018-03-01T13:18:56.453Z,82.23
2018-03-01T13:21:24.535Z,90.23
2018-03-01T13:23:52.998Z,96.53
2018-03-01T13:26:21.205Z,86.23
2018-03-01T13:28:49.142Z,85.47
2018-03-01T13:31:17.314Z,83.67
2018-03-01T13:34:01.874Z,78.70
2018-03-01T13:36:30.075Z,80.87
2018-03-01T13:38:58.218Z,70.53
2018-03-01T13:41:26.500Z,83.97
2018-03-01T13:43:54.598Z,87.10
2018-03-01T13:46:24.488Z,83.10
2018-03-01T13:48:53.163Z,80.87
2018-03-01T13:51:21.545Z,84.43
2018-03-01T13:53:49.635Z,83.90
2018-03-01T13:56:17.685Z,92.27
2018-03-01T13:58:45.592Z,82.30
2018-03-01T14:01:14.562Z,91.20
2018-03-01T14:03:42.536Z,92.77
2018-03-01T14:06:26.454Z,82.90
2018-03-01T14:08:57.188Z,81.53
2018-03-01T14:11:25.064Z,95.90
2018-03-01T14:13:53.058Z,87.90
2018-03-01T14:16:21.138Z,90.63
2018-03-01T14:19:08.519Z,90.17
2018-03-01T14:21:38.434Z,91.20
2018-03-01T14:24:07.228Z,88.03
2018-03-01T14:26:40.742Z,95.53
2018-03-01T14:32:12.745Z,101.70
2018-03-01T14:34:41.694Z,89.03
2018-03-01T14:37:09.909Z,88.67
2018-03-01T14:39:38.116Z,92.73
2018-03-01T14:42:06.424Z,83.63
2018-03-01T14:44:34.695Z,71.37
2018-03-01T14:47:02.718Z,98.40
2018-03-01T14:49:31.476Z,87.50
2018-03-01T14:51:59.885Z,83.10
2018-03-01T14:54:28.655Z,88.87
2018-03-01T14:56:56.697Z,92.37
2018-03-01T14:59:24.915Z,99.37
2018-03-01T15:01:53.038Z,93.50
2018-03-01T15:04:21.610Z,96.30
2018-03-01T15:06:53.384Z,88.23
2018-03-01T15:09:24.372Z,98.10
2018-03-01T15:11:53.107Z,81.33
2018-03-01T15:14:21.097Z,88.03
2018-03-01T15:16:49.145Z,84.43
2018-03-01T15:19:17.830Z,88.97
2018-03-01T15:21:45.775Z,101.33
2018-03-01T15:24:13.769Z,94.20
2018-03-01T15:26:42.020Z,88.70
2018-03-01T15:29:10.025Z,90.53
2018-03-01T15:31:38.522Z,92.87
2018-03-01T15:34:06.501Z,87.93
2018-03-01T15:36:35.203Z,99.47
2018-03-01T15:39:04.552Z,80.67
2018-03-01T15:41:32.726Z,89.97
2018-03-01T15:44:00.836Z,100.57
2018-03-01T15:46:29.713Z,86.00
2018-03-01T15:48:57.899Z,96.93
2018-03-01T15:51:31.394Z,86.17
2018-03-01T15:54:01.528Z,92.40
2018-03-01T15:56:30.611Z,97.53
2018-03-01T15:58:59.912Z,104.37
2018-03-01T16:01:29.192Z,96.33
2018-03-01T16:05:09.273Z,93.90
2018-03-01T16:07:38.269Z,93.73
2018-03-01T16:10:07.814Z,114.60
2018-03-01T16:12:35.716Z,100.87
2018-03-01T16:15:03.590Z,94.97
2018-03-01T16:17:31.533Z,92.67
2018-03-01T16:19:59.906Z,111.40
2018-03-01T16:22:28.402Z,91.77
2018-03-01T16:24:56.274Z,93.87
2018-03-01T16:27:24.223Z,86.63
2018-03-01T16:29:53.505Z,94.47
2018-03-01T16:32:21.936Z,106.67
2018-03-01T16:34:52.632Z,103.83
2018-03-01T16:37:20.585Z,108.53
2018-03-01T16:39:48.715Z,103.27
2018-03-01T16:42:16.879Z,100.77
2018-03-01T16:44:45.018Z,110.90
2018-03-01T16:47:13.347Z,86.57
2018-03-01T16:49:42.292Z,88.23
2018-03-01T16:52:10.501Z,105.40
2018-03-01T16:54:39.355Z,94.77
2018-03-01T16:57:08.132Z,94.80
2018-03-01T16:59:37.598Z,103.90
2018-03-01T17:02:07.833Z,94.43
2018-03-01T17:04:37.717Z,105.07
2018-03-01T17:07:07.793Z,96.00
2018-03-01T17:09:37.036Z,107.53
2018-03-01T17:12:08.806Z,95.03
2018-03-01T17:14:38.563Z,99.40
2018-03-01T17:17:09.086Z,104.63
2018-03-01T17:19:38.201Z,93.57
2018-03-01T17:22:07.934Z,105.30
2018-03-01T17:24:37.607Z,93.13
2018-03-01T17:27:06.854Z,123.30
2018-03-01T17:29:37.244Z,94.13
2018-03-01T17:32:07.294Z,97.03
2018-03-01T17:34:37.488Z,104.93
2018-03-01T17:37:06.514Z,102.70
2018-03-01T17:39:36.191Z,99.87
2018-03-01T17:42:06.268Z,110.30
2018-03-01T17:44:35.858Z,116.13
2018-03-01T17:47:05.921Z,103.60
2018-03-01T17:49:34.502Z,113.90
2018-03-01T17:52:03.319Z,101.03
2018-03-01T17:54:32.996Z,102.23
2018-03-01T17:57:02.545Z,113.47
2018-03-01T17:59:37.825Z,118.33
2018-03-01T18:02:07.202Z,110.20
2018-03-01T18:04:37.129Z,111.80
2018-03-01T18:07:11.327Z,111.93
2018-03-01T18:09:40.795Z,110.20
2018-03-01T18:12:13.939Z,118.83
2018-03-01T18:14:43.216Z,123.00
2018-03-01T18:17:13.575Z,106.43
2018-03-01T18:19:43.571Z,105.77
2018-03-01T18:22:15.941Z,110.63
2018-03-01T18:24:45.534Z,106.27
2018-03-01T18:27:16.439Z,105.57
2018-03-01T18:29:48.224Z,124.07
2018-03-01T18:32:17.753Z,108.20
2018-03-01T18:34:47.742Z,96.43
2018-03-01T18:37:17.869Z,114.13
2018-03-01T18:39:47.867Z,96.80
2018-03-01T18:42:18.156Z,116.93
2018-03-01T18:44:50.329Z,109.47
2018-03-01T18:47:20.438Z,116.27
2018-03-01T18:49:50.917Z,108.40
2018-03-01T18:52:21.854Z,120.03
2018-03-01T18:54:51.417Z,130.33
2018-03-01T18:57:22.692Z,119.73
2018-03-01T18:59:55.043Z,112.97
2018-03-01T19:02:24.833Z,116.13
2018-03-01T19:04:54.251Z,111.23
2018-03-01T19:07:23.569Z,122.23
2018-03-01T19:09:56.027Z,123.70
2018-03-01T19:12:25.627Z,115.13
2018-03-01T19:14:55.562Z,129.53
2018-03-01T19:17:25.112Z,125.30
2018-03-01T19:19:55.665Z,123.97
2018-03-01T19:22:25.749Z,112.93
2018-03-01T19:24:55.158Z,119.93
2018-03-01T19:27:25.165Z,138.73
2018-03-01T19:29:54.723Z,120.80
2018-03-01T19:32:25.048Z,123.23
2018-03-01T19:34:54.904Z,144.87
2018-03-01T19:37:25.646Z,143.53
2018-03-01T19:39:56.102Z,140.50
2018-03-01T19:42:26.141Z,144.00
2018-03-01T19:44:56.616Z,132.67
2018-03-01T19:47:25.930Z,143.17
2018-03-01T19:49:55.516Z,139.47
2018-03-01T19:52:27.773Z,133.30
2018-03-01T19:54:58.088Z,129.53
2018-03-01T19:57:27.128Z,138.83
2018-03-01T19:59:56.485Z,166.63
2018-03-01T20:02:26.417Z,143.20
2018-03-01T20:04:56.973Z,145.93
2018-03-01T20:07:27.143Z,141.13
2018-03-01T20:09:56.530Z,134.87
2018-03-01T20:12:25.852Z,137.60
2018-03-01T20:14:54.543Z,132.07
2018-03-01T20:17:24.752Z,135.80
2018-03-01T20:19:54.371Z,129.30
2018-03-01T20:22:25.138Z,136.73
2018-03-01T20:24:53.929Z,135.57
2018-03-01T20:27:24.496Z,149.07
2018-03-01T20:29:53.563Z,160.33
2018-03-01T20:32:23.729Z,158.03
2018-03-01T20:34:53.688Z,153.80
2018-03-01T20:37:22.457Z,153.97
2018-03-01T20:39:53.689Z,155.17
2018-03-01T20:42:24.577Z,168.03
2018-03-01T20:44:54.742Z,164.43
2018-03-01T20:47:26.692Z,161.93
2018-03-01T20:49:56.443Z,152.73
2018-03-01T20:52:25.795Z,167.47
2018-03-01T20:55:00.459Z,147.63
2018-03-01T20:57:30.734Z,163.97
2018-03-01T21:00:04.988Z,152.73
2018-03-01T21:02:35.418Z,152.97
2018-03-01T21:05:06.476Z,151.83
2018-03-01T21:07:36.416Z,142.80
2018-03-01T21:10:05.520Z,128.93
2018-03-01T21:12:34.473Z,130.77
2018-03-01T21:15:04.676Z,142.23
2018-03-01T21:17:35.399Z,142.17
2018-03-01T21:20:06.320Z,130.03
2018-03-01T21:22:38.200Z,139.97
2018-03-01T21:25:11.838Z,131.73
2018-03-01T21:27:49.421Z,128.63
2018-03-01T21:30:23.655Z,146.27
2018-03-01T21:33:20.121Z,137.50
2018-03-01T21:35:51.257Z,126.20
2018-03-01T21:38:24.534Z,142.93
2018-03-01T21:40:55.757Z,125.03
2018-03-01T21:46:15.579Z,121.67
2018-03-01T21:48:49.375Z,138.80
2018-03-01T21:51:19.619Z,137.23
2018-03-01T21:53:57.665Z,143.27
2018-03-01T21:56:29.776Z,144.00
2018-03-01T21:58:59.976Z,152.40
2018-03-01T22:01:29.713Z,149.37
2018-03-01T22:04:01.562Z,139.47
2018-03-01T22:06:30.834Z,135.73
2018-03-01T22:09:02.092Z,154.77
2018-03-01T22:11:40.160Z,160.10
2018-03-01T22:14:13.554Z,161.93
2018-03-01T22:16:44.594Z,168.90
2018-03-01T22:19:21.308Z,133.03
2018-03-01T22:21:54.446Z,158.57
2018-03-01T22:24:23.926Z,168.90
2018-03-01T22:26:53.475Z,166.70
2018-03-01T22:29:25.795Z,153.00
2018-03-01T22:31:55.841Z,164.67
2018-03-01T22:34:31.462Z,165.90
2018-03-01T22:40:02.290Z,166.30
2018-03-01T22:42:40.759Z,158.30
2018-03-01T22:45:14.223Z,159.40
2018-03-01T22:47:46.029Z,164.63
2018-03-01T22:50:19.598Z,167.40
2018-03-01T22:52:55.123Z,163.63
2018-03-01T22:55:26.203Z,167.57
2018-03-01T22:57:57.197Z,163.27
2018-03-01T23:00:39.621Z,146.53
2018-03-01T23:03:11.128Z,148.07
2018-03-01T23:05:42.108Z,161.47
2018-03-01T23:08:11.959Z,148.67
2018-03-01T23:10:43.095Z,155.27
2018-03-01T23:13:16.236Z,158.97
2018-03-01T23:15:48.763Z,151.90
2018-03-01T23:18:21.912Z,142.50
2018-03-01T23:20:54.969Z,155.13
2018-03-01T23:23:27.300Z,141.30
2018-03-01T23:26:00.589Z,145.83
2018-03-01T23:28:34.882Z,156.33
2018-03-01T23:31:08.060Z,154.57
2018-03-01T23:33:44.147Z,155.43
2018-03-01T23:36:18.608Z,132.17
2018-03-01T23:38:52.758Z,143.43
2018-03-01T23:41:24.922Z,151.67
2018-03-01T23:43:59.718Z,136.57
2018-03-01T23:46:33.452Z,159.63
2018-03-01T23:49:05.502Z,144.63
2018-03-01T23:51:39.043Z,148.43
2018-03-01T23:54:10.102Z,146.80
2018-03-01T23:56:42.027Z,146.53
2018-03-01T23:59:18.435Z,143.17
